sensor_id;sensor_type;location;lat;lon;timestamp;P1;durP1;ratioP1;P2;durP2;ratioP2
45198;SDS011;30941;46.422;18.772;2023-02-03T00:00:47;7.25;;;3.22;;
45198;SDS011;30941;46.422;18.772;2023-02-03T00:03:13;7.13;;;3.20;;
45198;SDS011;30941;46.422;18.772;2023-02-03T00:05:38;7.70;;;3.00;;
45198;SDS011;30941;46.422;18.772;2023-02-03T00:08:04;5.60;;;2.60;;
45198;SDS011;30941;46.422;18.772;2023-02-03T00:10:31;7.13;;;2.90;;
45198;SDS011;30941;46.422;18.772;2023-02-03T00:12:59;7.35;;;2.88;;
45198;SDS011;30941;46.422;18.772;2023-02-03T00:15:24;6.13;;;2.88;;
45198;SDS011;30941;46.422;18.772;2023-02-03T00:17:51;5.82;;;2.85;;
45198;SDS011;30941;46.422;18.772;2023-02-03T00:20:16;4.43;;;2.60;;
45198;SDS011;30941;46.422;18.772;2023-02-03T00:22:41;4.43;;;2.55;;
45198;SDS011;30941;46.422;18.772;2023-02-03T00:25:07;5.78;;;2.88;;
45198;SDS011;30941;46.422;18.772;2023-02-03T00:27:32;10.00;;;2.67;;
45198;SDS011;30941;46.422;18.772;2023-02-03T00:29:58;5.40;;;2.72;;
45198;SDS011;30941;46.422;18.772;2023-02-03T00:32:23;5.78;;;2.63;;
45198;SDS011;30941;46.422;18.772;2023-02-03T00:34:49;6.30;;;2.70;;
45198;SDS011;30941;46.422;18.772;2023-02-03T00:37:14;6.32;;;2.30;;
45198;SDS011;30941;46.422;18.772;2023-02-03T00:39:39;6.88;;;2.70;;
45198;SDS011;30941;46.422;18.772;2023-02-03T00:42:05;8.43;;;2.67;;
45198;SDS011;30941;46.422;18.772;2023-02-03T00:44:30;6.95;;;3.05;;
45198;SDS011;30941;46.422;18.772;2023-02-03T00:46:56;4.80;;;2.75;;
45198;SDS011;30941;46.422;18.772;2023-02-03T00:49:22;5.97;;;3.08;;
45198;SDS011;30941;46.422;18.772;2023-02-03T00:51:47;6.15;;;3.38;;
45198;SDS011;30941;46.422;18.772;2023-02-03T00:54:13;6.72;;;3.90;;
45198;SDS011;30941;46.422;18.772;2023-02-03T00:56:39;6.47;;;4.28;;
45198;SDS011;30941;46.422;18.772;2023-02-03T00:59:04;7.72;;;3.67;;
45198;SDS011;30941;46.422;18.772;2023-02-03T01:01:30;8.85;;;3.78;;
45198;SDS011;30941;46.422;18.772;2023-02-03T01:03:56;5.40;;;3.22;;
45198;SDS011;30941;46.422;18.772;2023-02-03T01:06:22;7.97;;;3.30;;
45198;SDS011;30941;46.422;18.772;2023-02-03T01:08:48;5.82;;;3.50;;
45198;SDS011;30941;46.422;18.772;2023-02-03T01:11:15;5.30;;;2.85;;
45198;SDS011;30941;46.422;18.772;2023-02-03T01:13:42;8.68;;;3.15;;
45198;SDS011;30941;46.422;18.772;2023-02-03T01:16:11;8.02;;;3.35;;
45198;SDS011;30941;46.422;18.772;2023-02-03T01:18:38;8.20;;;3.22;;
45198;SDS011;30941;46.422;18.772;2023-02-03T01:21:04;7.13;;;3.17;;
45198;SDS011;30941;46.422;18.772;2023-02-03T01:23:31;9.00;;;3.47;;
45198;SDS011;30941;46.422;18.772;2023-02-03T01:26:00;8.80;;;3.00;;
45198;SDS011;30941;46.422;18.772;2023-02-03T01:28:29;6.63;;;2.97;;
45198;SDS011;30941;46.422;18.772;2023-02-03T01:30:55;8.20;;;2.53;;
45198;SDS011;30941;46.422;18.772;2023-02-03T01:33:20;10.75;;;2.83;;
45198;SDS011;30941;46.422;18.772;2023-02-03T01:35:46;7.95;;;3.08;;
45198;SDS011;30941;46.422;18.772;2023-02-03T01:38:11;7.38;;;3.72;;
45198;SDS011;30941;46.422;18.772;2023-02-03T01:40:43;7.07;;;3.00;;
45198;SDS011;30941;46.422;18.772;2023-02-03T01:43:09;8.63;;;2.97;;
45198;SDS011;30941;46.422;18.772;2023-02-03T01:45:35;8.00;;;2.90;;
45198;SDS011;30941;46.422;18.772;2023-02-03T01:48:01;5.97;;;3.08;;
45198;SDS011;30941;46.422;18.772;2023-02-03T01:50:30;5.75;;;2.90;;
45198;SDS011;30941;46.422;18.772;2023-02-03T01:53:07;6.80;;;2.95;;
45198;SDS011;30941;46.422;18.772;2023-02-03T01:55:46;6.75;;;2.70;;
45198;SDS011;30941;46.422;18.772;2023-02-03T01:58:22;10.38;;;2.85;;
45198;SDS011;30941;46.422;18.772;2023-02-03T02:00:53;9.27;;;2.83;;
45198;SDS011;30941;46.422;18.772;2023-02-03T02:03:22;6.63;;;2.85;;
45198;SDS011;30941;46.422;18.772;2023-02-03T02:05:57;7.82;;;3.28;;
45198;SDS011;30941;46.422;18.772;2023-02-03T02:08:26;11.55;;;3.10;;
45198;SDS011;30941;46.422;18.772;2023-02-03T02:10:51;6.40;;;2.50;;
45198;SDS011;30941;46.422;18.772;2023-02-03T02:13:17;7.53;;;2.83;;
45198;SDS011;30941;46.422;18.772;2023-02-03T02:21:54;7.05;;;2.70;;
45198;SDS011;30941;46.422;18.772;2023-02-03T02:27:25;7.55;;;2.83;;
45198;SDS011;30941;46.422;18.772;2023-02-03T02:33:01;6.70;;;3.08;;
45198;SDS011;30941;46.422;18.772;2023-02-03T02:38:39;5.80;;;2.97;;
45198;SDS011;30941;46.422;18.772;2023-02-03T02:41:25;6.32;;;2.63;;
45198;SDS011;30941;46.422;18.772;2023-02-03T02:47:23;9.23;;;2.92;;
45198;SDS011;30941;46.422;18.772;2023-02-03T02:49:59;6.88;;;2.90;;
45198;SDS011;30941;46.422;18.772;2023-02-03T02:52:29;6.50;;;3.22;;
45198;SDS011;30941;46.422;18.772;2023-02-03T02:54:56;7.20;;;2.90;;
45198;SDS011;30941;46.422;18.772;2023-02-03T02:57:32;11.40;;;3.03;;
45198;SDS011;30941;46.422;18.772;2023-02-03T02:59:59;8.95;;;3.72;;
45198;SDS011;30941;46.422;18.772;2023-02-03T03:02:30;7.53;;;3.95;;
45198;SDS011;30941;46.422;18.772;2023-02-03T03:04:57;6.00;;;3.20;;
45198;SDS011;30941;46.422;18.772;2023-02-03T03:07:23;6.20;;;3.65;;
45198;SDS011;30941;46.422;18.772;2023-02-03T03:09:54;5.53;;;3.05;;
45198;SDS011;30941;46.422;18.772;2023-02-03T03:12:25;8.48;;;3.95;;
45198;SDS011;30941;46.422;18.772;2023-02-03T03:14:54;7.10;;;2.85;;
45198;SDS011;30941;46.422;18.772;2023-02-03T03:17:25;9.38;;;3.58;;
45198;SDS011;30941;46.422;18.772;2023-02-03T03:19:54;6.95;;;2.90;;
45198;SDS011;30941;46.422;18.772;2023-02-03T03:22:24;6.25;;;3.00;;
45198;SDS011;30941;46.422;18.772;2023-02-03T03:27:55;8.07;;;2.97;;
45198;SDS011;30941;46.422;18.772;2023-02-03T03:30:33;8.43;;;2.80;;
45198;SDS011;30941;46.422;18.772;2023-02-03T03:33:00;5.82;;;3.00;;
45198;SDS011;30941;46.422;18.772;2023-02-03T03:35:30;10.35;;;3.10;;
45198;SDS011;30941;46.422;18.772;2023-02-03T03:38:18;4.85;;;3.13;;
45198;SDS011;30941;46.422;18.772;2023-02-03T03:40:49;6.22;;;3.38;;
45198;SDS011;30941;46.422;18.772;2023-02-03T03:43:19;6.07;;;3.40;;
45198;SDS011;30941;46.422;18.772;2023-02-03T03:45:58;7.57;;;3.70;;
45198;SDS011;30941;46.422;18.772;2023-02-03T03:48:37;6.70;;;3.83;;
45198;SDS011;30941;46.422;18.772;2023-02-03T03:51:07;7.35;;;3.88;;
45198;SDS011;30941;46.422;18.772;2023-02-03T03:53:36;9.90;;;3.83;;
45198;SDS011;30941;46.422;18.772;2023-02-03T03:56:03;10.02;;;3.63;;
45198;SDS011;30941;46.422;18.772;2023-02-03T03:58:31;7.22;;;3.28;;
45198;SDS011;30941;46.422;18.772;2023-02-03T04:00:57;8.10;;;3.10;;
45198;SDS011;30941;46.422;18.772;2023-02-03T04:03:30;6.57;;;3.28;;
45198;SDS011;30941;46.422;18.772;2023-02-03T04:05:57;7.57;;;3.65;;
45198;SDS011;30941;46.422;18.772;2023-02-03T04:08:22;7.68;;;3.35;;
45198;SDS011;30941;46.422;18.772;2023-02-03T04:10:48;9.48;;;3.90;;
45198;SDS011;30941;46.422;18.772;2023-02-03T04:13:13;13.02;;;6.00;;
45198;SDS011;30941;46.422;18.772;2023-02-03T04:15:40;12.60;;;6.35;;
45198;SDS011;30941;46.422;18.772;2023-02-03T04:18:05;9.40;;;5.35;;
45198;SDS011;30941;46.422;18.772;2023-02-03T04:20:31;8.80;;;5.00;;
45198;SDS011;30941;46.422;18.772;2023-02-03T04:22:57;8.00;;;4.30;;
45198;SDS011;30941;46.422;18.772;2023-02-03T04:25:23;8.30;;;3.80;;
45198;SDS011;30941;46.422;18.772;2023-02-03T04:27:48;6.22;;;3.08;;
45198;SDS011;30941;46.422;18.772;2023-02-03T04:30:14;5.55;;;3.40;;
45198;SDS011;30941;46.422;18.772;2023-02-03T04:32:42;7.13;;;2.95;;
45198;SDS011;30941;46.422;18.772;2023-02-03T04:35:08;10.35;;;3.42;;
45198;SDS011;30941;46.422;18.772;2023-02-03T04:37:33;4.75;;;3.15;;
45198;SDS011;30941;46.422;18.772;2023-02-03T04:39:59;6.97;;;3.40;;
45198;SDS011;30941;46.422;18.772;2023-02-03T04:42:24;8.90;;;3.40;;
45198;SDS011;30941;46.422;18.772;2023-02-03T04:44:50;9.40;;;4.05;;
45198;SDS011;30941;46.422;18.772;2023-02-03T04:47:15;10.27;;;3.75;;
45198;SDS011;30941;46.422;18.772;2023-02-03T04:49:41;11.52;;;4.68;;
45198;SDS011;30941;46.422;18.772;2023-02-03T04:52:06;15.35;;;6.07;;
45198;SDS011;30941;46.422;18.772;2023-02-03T04:54:32;22.67;;;7.82;;
45198;SDS011;30941;46.422;18.772;2023-02-03T04:56:58;37.55;;;14.00;;
45198;SDS011;30941;46.422;18.772;2023-02-03T04:59:23;107.30;;;38.67;;
45198;SDS011;30941;46.422;18.772;2023-02-03T05:01:49;105.95;;;39.58;;
45198;SDS011;30941;46.422;18.772;2023-02-03T05:04:14;107.25;;;38.28;;
45198;SDS011;30941;46.422;18.772;2023-02-03T05:06:39;83.55;;;31.08;;
45198;SDS011;30941;46.422;18.772;2023-02-03T05:09:05;68.88;;;24.40;;
45198;SDS011;30941;46.422;18.772;2023-02-03T05:11:30;38.90;;;15.20;;
45198;SDS011;30941;46.422;18.772;2023-02-03T05:13:56;35.53;;;13.70;;
45198;SDS011;30941;46.422;18.772;2023-02-03T05:16:22;15.48;;;7.65;;
45198;SDS011;30941;46.422;18.772;2023-02-03T05:18:47;11.45;;;5.10;;
45198;SDS011;30941;46.422;18.772;2023-02-03T05:21:13;9.70;;;4.72;;
45198;SDS011;30941;46.422;18.772;2023-02-03T05:23:38;8.35;;;3.95;;
45198;SDS011;30941;46.422;18.772;2023-02-03T05:26:03;12.32;;;5.05;;
45198;SDS011;30941;46.422;18.772;2023-02-03T05:28:29;8.45;;;4.05;;
45198;SDS011;30941;46.422;18.772;2023-02-03T05:30:56;8.15;;;3.70;;
45198;SDS011;30941;46.422;18.772;2023-02-03T05:33:23;10.05;;;4.38;;
45198;SDS011;30941;46.422;18.772;2023-02-03T05:35:48;12.82;;;4.10;;
45198;SDS011;30941;46.422;18.772;2023-02-03T05:38:13;12.18;;;5.63;;
45198;SDS011;30941;46.422;18.772;2023-02-03T05:40:39;13.55;;;6.45;;
45198;SDS011;30941;46.422;18.772;2023-02-03T05:45:48;14.13;;;6.63;;
45198;SDS011;30941;46.422;18.772;2023-02-03T05:48:13;15.32;;;7.22;;
45198;SDS011;30941;46.422;18.772;2023-02-03T05:50:39;15.52;;;6.43;;
45198;SDS011;30941;46.422;18.772;2023-02-03T05:53:05;10.00;;;5.00;;
45198;SDS011;30941;46.422;18.772;2023-02-03T05:55:31;11.95;;;5.13;;
45198;SDS011;30941;46.422;18.772;2023-02-03T05:57:56;15.85;;;7.30;;
45198;SDS011;30941;46.422;18.772;2023-02-03T06:00:22;26.45;;;12.18;;
45198;SDS011;30941;46.422;18.772;2023-02-03T06:02:55;25.38;;;12.63;;
45198;SDS011;30941;46.422;18.772;2023-02-03T06:07:47;27.92;;;12.43;;
45198;SDS011;30941;46.422;18.772;2023-02-03T06:10:13;31.40;;;13.20;;
45198;SDS011;30941;46.422;18.772;2023-02-03T06:12:39;29.25;;;12.10;;
45198;SDS011;30941;46.422;18.772;2023-02-03T06:15:04;23.92;;;11.02;;
45198;SDS011;30941;46.422;18.772;2023-02-03T06:17:30;22.50;;;11.30;;
45198;SDS011;30941;46.422;18.772;2023-02-03T06:19:56;16.47;;;9.23;;
45198;SDS011;30941;46.422;18.772;2023-02-03T06:22:21;16.48;;;8.52;;
45198;SDS011;30941;46.422;18.772;2023-02-03T06:24:47;13.07;;;7.10;;
45198;SDS011;30941;46.422;18.772;2023-02-03T06:27:13;20.83;;;8.60;;
45198;SDS011;30941;46.422;18.772;2023-02-03T06:29:39;10.52;;;7.03;;
45198;SDS011;30941;46.422;18.772;2023-02-03T06:32:04;14.07;;;7.57;;
45198;SDS011;30941;46.422;18.772;2023-02-03T06:34:30;18.50;;;7.63;;
45198;SDS011;30941;46.422;18.772;2023-02-03T06:36:56;16.05;;;8.25;;
45198;SDS011;30941;46.422;18.772;2023-02-03T06:39:22;15.93;;;8.05;;
45198;SDS011;30941;46.422;18.772;2023-02-03T06:41:47;16.23;;;7.22;;
45198;SDS011;30941;46.422;18.772;2023-02-03T06:44:13;13.38;;;8.30;;
45198;SDS011;30941;46.422;18.772;2023-02-03T06:46:38;17.13;;;8.52;;
45198;SDS011;30941;46.422;18.772;2023-02-03T06:49:03;16.75;;;6.75;;
45198;SDS011;30941;46.422;18.772;2023-02-03T06:51:29;8.75;;;4.75;;
45198;SDS011;30941;46.422;18.772;2023-02-03T06:53:54;8.93;;;3.70;;
45198;SDS011;30941;46.422;18.772;2023-02-03T06:56:20;7.55;;;3.67;;
45198;SDS011;30941;46.422;18.772;2023-02-03T06:58:45;9.00;;;4.68;;
45198;SDS011;30941;46.422;18.772;2023-02-03T07:01:10;13.43;;;6.93;;
45198;SDS011;30941;46.422;18.772;2023-02-03T07:03:36;9.30;;;6.00;;
45198;SDS011;30941;46.422;18.772;2023-02-03T07:06:01;14.98;;;5.95;;
45198;SDS011;30941;46.422;18.772;2023-02-03T07:08:27;12.13;;;7.05;;
45198;SDS011;30941;46.422;18.772;2023-02-03T07:10:53;15.90;;;6.20;;
45198;SDS011;30941;46.422;18.772;2023-02-03T07:13:18;12.25;;;6.43;;
45198;SDS011;30941;46.422;18.772;2023-02-03T07:15:44;11.75;;;5.20;;
45198;SDS011;30941;46.422;18.772;2023-02-03T07:18:09;10.00;;;4.88;;
45198;SDS011;30941;46.422;18.772;2023-02-03T07:20:34;7.65;;;4.30;;
45198;SDS011;30941;46.422;18.772;2023-02-03T07:23:00;9.32;;;4.72;;
45198;SDS011;30941;46.422;18.772;2023-02-03T07:25:25;10.90;;;5.22;;
45198;SDS011;30941;46.422;18.772;2023-02-03T07:27:51;13.02;;;5.45;;
45198;SDS011;30941;46.422;18.772;2023-02-03T07:30:17;14.82;;;6.35;;
45198;SDS011;30941;46.422;18.772;2023-02-03T07:32:46;13.90;;;5.60;;
45198;SDS011;30941;46.422;18.772;2023-02-03T07:35:12;11.07;;;6.00;;
45198;SDS011;30941;46.422;18.772;2023-02-03T07:37:37;10.68;;;4.88;;
45198;SDS011;30941;46.422;18.772;2023-02-03T07:40:03;13.00;;;5.60;;
45198;SDS011;30941;46.422;18.772;2023-02-03T07:42:28;12.93;;;6.65;;
45198;SDS011;30941;46.422;18.772;2023-02-03T07:44:54;14.27;;;5.47;;
45198;SDS011;30941;46.422;18.772;2023-02-03T07:47:19;15.50;;;7.07;;
45198;SDS011;30941;46.422;18.772;2023-02-03T07:49:45;22.20;;;9.98;;
45198;SDS011;30941;46.422;18.772;2023-02-03T07:52:10;27.80;;;12.90;;
45198;SDS011;30941;46.422;18.772;2023-02-03T07:54:35;28.30;;;11.48;;
45198;SDS011;30941;46.422;18.772;2023-02-03T07:57:01;21.38;;;8.88;;
45198;SDS011;30941;46.422;18.772;2023-02-03T07:59:26;15.25;;;6.90;;
45198;SDS011;30941;46.422;18.772;2023-02-03T08:01:51;13.65;;;6.80;;
45198;SDS011;30941;46.422;18.772;2023-02-03T08:04:20;17.60;;;6.18;;
45198;SDS011;30941;46.422;18.772;2023-02-03T08:06:46;13.20;;;5.38;;
45198;SDS011;30941;46.422;18.772;2023-02-03T08:09:11;13.15;;;5.45;;
45198;SDS011;30941;46.422;18.772;2023-02-03T08:11:36;11.60;;;5.70;;
45198;SDS011;30941;46.422;18.772;2023-02-03T08:14:02;12.40;;;5.20;;
45198;SDS011;30941;46.422;18.772;2023-02-03T08:16:27;11.32;;;5.97;;
45198;SDS011;30941;46.422;18.772;2023-02-03T08:18:53;8.57;;;4.82;;
45198;SDS011;30941;46.422;18.772;2023-02-03T08:21:18;9.65;;;4.53;;
45198;SDS011;30941;46.422;18.772;2023-02-03T08:23:43;13.05;;;5.30;;
45198;SDS011;30941;46.422;18.772;2023-02-03T08:26:09;12.05;;;5.47;;
45198;SDS011;30941;46.422;18.772;2023-02-03T08:28:34;12.25;;;5.25;;
45198;SDS011;30941;46.422;18.772;2023-02-03T08:30:59;13.30;;;5.80;;
45198;SDS011;30941;46.422;18.772;2023-02-03T08:33:25;12.80;;;5.88;;
45198;SDS011;30941;46.422;18.772;2023-02-03T08:35:51;14.68;;;6.28;;
45198;SDS011;30941;46.422;18.772;2023-02-03T08:38:17;13.43;;;6.40;;
45198;SDS011;30941;46.422;18.772;2023-02-03T08:40:42;14.90;;;7.22;;
45198;SDS011;30941;46.422;18.772;2023-02-03T08:43:07;15.35;;;6.43;;
45198;SDS011;30941;46.422;18.772;2023-02-03T08:45:33;18.13;;;6.53;;
45198;SDS011;30941;46.422;18.772;2023-02-03T08:47:58;17.88;;;7.30;;
45198;SDS011;30941;46.422;18.772;2023-02-03T08:50:24;21.15;;;8.23;;
45198;SDS011;30941;46.422;18.772;2023-02-03T08:52:49;19.17;;;8.02;;
45198;SDS011;30941;46.422;18.772;2023-02-03T08:55:14;14.93;;;5.85;;
45198;SDS011;30941;46.422;18.772;2023-02-03T08:57:40;30.58;;;9.23;;
45198;SDS011;30941;46.422;18.772;2023-02-03T09:00:06;36.28;;;13.73;;
45198;SDS011;30941;46.422;18.772;2023-02-03T09:02:33;28.35;;;11.85;;
45198;SDS011;30941;46.422;18.772;2023-02-03T09:04:58;21.27;;;9.90;;
45198;SDS011;30941;46.422;18.772;2023-02-03T09:07:24;29.02;;;10.98;;
45198;SDS011;30941;46.422;18.772;2023-02-03T09:09:49;29.05;;;11.95;;
45198;SDS011;30941;46.422;18.772;2023-02-03T09:12:14;31.83;;;13.13;;
45198;SDS011;30941;46.422;18.772;2023-02-03T09:14:41;32.38;;;12.75;;
45198;SDS011;30941;46.422;18.772;2023-02-03T09:17:06;26.20;;;10.90;;
45198;SDS011;30941;46.422;18.772;2023-02-03T09:19:33;18.15;;;7.80;;
45198;SDS011;30941;46.422;18.772;2023-02-03T09:21:58;17.25;;;7.60;;
45198;SDS011;30941;46.422;18.772;2023-02-03T09:24:24;14.00;;;6.97;;
45198;SDS011;30941;46.422;18.772;2023-02-03T09:26:49;18.08;;;7.15;;
45198;SDS011;30941;46.422;18.772;2023-02-03T09:29:15;16.10;;;7.80;;
45198;SDS011;30941;46.422;18.772;2023-02-03T09:31:41;19.08;;;8.35;;
45198;SDS011;30941;46.422;18.772;2023-02-03T09:34:06;17.35;;;6.82;;
45198;SDS011;30941;46.422;18.772;2023-02-03T09:36:32;14.10;;;6.15;;
45198;SDS011;30941;46.422;18.772;2023-02-03T09:38:58;14.38;;;6.97;;
45198;SDS011;30941;46.422;18.772;2023-02-03T09:44:12;16.92;;;8.23;;
45198;SDS011;30941;46.422;18.772;2023-02-03T09:46:46;16.70;;;9.38;;
45198;SDS011;30941;46.422;18.772;2023-02-03T09:52:04;18.40;;;8.93;;
45198;SDS011;30941;46.422;18.772;2023-02-03T09:56:59;15.77;;;7.82;;
45198;SDS011;30941;46.422;18.772;2023-02-03T09:59:26;13.13;;;7.43;;
45198;SDS011;30941;46.422;18.772;2023-02-03T10:02:12;13.30;;;7.15;;
45198;SDS011;30941;46.422;18.772;2023-02-03T10:05:00;13.07;;;6.68;;
45198;SDS011;30941;46.422;18.772;2023-02-03T10:10:21;12.10;;;6.65;;
45198;SDS011;30941;46.422;18.772;2023-02-03T10:13:00;15.65;;;7.63;;
45198;SDS011;30941;46.422;18.772;2023-02-03T10:16:28;12.90;;;7.35;;
45198;SDS011;30941;46.422;18.772;2023-02-03T10:18:28;8.32;;;5.13;;
45198;SDS011;30941;46.422;18.772;2023-02-03T10:20:58;11.80;;;5.32;;
45198;SDS011;30941;46.422;18.772;2023-02-03T10:23:32;10.63;;;5.25;;
45198;SDS011;30941;46.422;18.772;2023-02-03T10:26:18;9.52;;;5.45;;
45198;SDS011;30941;46.422;18.772;2023-02-03T10:28:53;8.85;;;4.80;;
45198;SDS011;30941;46.422;18.772;2023-02-03T10:31:21;9.45;;;5.00;;
45198;SDS011;30941;46.422;18.772;2023-02-03T10:34:07;14.13;;;6.07;;
45198;SDS011;30941;46.422;18.772;2023-02-03T10:42:10;6.78;;;5.13;;
45198;SDS011;30941;46.422;18.772;2023-02-03T10:44:56;14.18;;;5.40;;
45198;SDS011;30941;46.422;18.772;2023-02-03T10:47:33;9.52;;;4.60;;
45198;SDS011;30941;46.422;18.772;2023-02-03T10:50:02;8.10;;;4.65;;
45198;SDS011;30941;46.422;18.772;2023-02-03T10:52:37;9.27;;;4.75;;
45198;SDS011;30941;46.422;18.772;2023-02-03T10:55:06;11.95;;;4.75;;
45198;SDS011;30941;46.422;18.772;2023-02-03T10:57:54;12.18;;;4.32;;
45198;SDS011;30941;46.422;18.772;2023-02-03T11:00:23;11.60;;;5.10;;
45198;SDS011;30941;46.422;18.772;2023-02-03T11:03:06;9.57;;;4.10;;
45198;SDS011;30941;46.422;18.772;2023-02-03T11:05:38;12.13;;;4.20;;
45198;SDS011;30941;46.422;18.772;2023-02-03T11:08:04;6.68;;;4.35;;
45198;SDS011;30941;46.422;18.772;2023-02-03T11:10:38;7.00;;;4.43;;
45198;SDS011;30941;46.422;18.772;2023-02-03T11:13:09;9.65;;;4.53;;
45198;SDS011;30941;46.422;18.772;2023-02-03T11:18:32;9.85;;;4.53;;
45198;SDS011;30941;46.422;18.772;2023-02-03T11:23:45;10.23;;;4.30;;
45198;SDS011;30941;46.422;18.772;2023-02-03T11:26:13;10.15;;;5.32;;
45198;SDS011;30941;46.422;18.772;2023-02-03T11:28:40;7.60;;;4.45;;
45198;SDS011;30941;46.422;18.772;2023-02-03T11:31:12;8.40;;;4.25;;
45198;SDS011;30941;46.422;18.772;2023-02-03T11:33:41;7.85;;;4.57;;
45198;SDS011;30941;46.422;18.772;2023-02-03T11:36:11;11.05;;;4.60;;
45198;SDS011;30941;46.422;18.772;2023-02-03T11:38:36;10.90;;;5.00;;
45198;SDS011;30941;46.422;18.772;2023-02-03T11:41:03;11.50;;;5.40;;
45198;SDS011;30941;46.422;18.772;2023-02-03T11:43:29;10.82;;;5.57;;
45198;SDS011;30941;46.422;18.772;2023-02-03T11:45:58;13.25;;;6.50;;
45198;SDS011;30941;46.422;18.772;2023-02-03T11:48:35;11.27;;;4.60;;
45198;SDS011;30941;46.422;18.772;2023-02-03T11:59:33;9.13;;;4.38;;
45198;SDS011;30941;46.422;18.772;2023-02-03T12:04:57;13.10;;;5.03;;
45198;SDS011;30941;46.422;18.772;2023-02-03T12:15:46;14.63;;;6.43;;
45198;SDS011;30941;46.422;18.772;2023-02-03T12:30:23;12.30;;;7.55;;
45198;SDS011;30941;46.422;18.772;2023-02-03T12:32:55;14.82;;;8.00;;
45198;SDS011;30941;46.422;18.772;2023-02-03T12:35:33;12.15;;;7.10;;
45198;SDS011;30941;46.422;18.772;2023-02-03T12:40:55;10.85;;;7.15;;
45198;SDS011;30941;46.422;18.772;2023-02-03T12:43:57;16.55;;;8.18;;
45198;SDS011;30941;46.422;18.772;2023-02-03T12:51:23;14.73;;;8.02;;
45198;SDS011;30941;46.422;18.772;2023-02-03T12:54:07;15.02;;;7.80;;
45198;SDS011;30941;46.422;18.772;2023-02-03T12:56:42;22.15;;;10.68;;
45198;SDS011;30941;46.422;18.772;2023-02-03T12:59:11;17.20;;;8.73;;
45198;SDS011;30941;46.422;18.772;2023-02-03T13:01:49;19.15;;;8.90;;
45198;SDS011;30941;46.422;18.772;2023-02-03T13:07:27;20.08;;;9.18;;
45198;SDS011;30941;46.422;18.772;2023-02-03T13:12:30;9.55;;;5.50;;
45198;SDS011;30941;46.422;18.772;2023-02-03T13:15:18;9.15;;;5.65;;
45198;SDS011;30941;46.422;18.772;2023-02-03T13:17:49;10.55;;;5.70;;
45198;SDS011;30941;46.422;18.772;2023-02-03T13:20:23;8.88;;;5.30;;
45198;SDS011;30941;46.422;18.772;2023-02-03T13:22:50;7.10;;;4.60;;
45198;SDS011;30941;46.422;18.772;2023-02-03T13:25:24;12.23;;;5.57;;
45198;SDS011;30941;46.422;18.772;2023-02-03T13:27:58;10.93;;;4.93;;
45198;SDS011;30941;46.422;18.772;2023-02-03T13:41:17;8.55;;;5.10;;
45198;SDS011;30941;46.422;18.772;2023-02-03T13:43:47;9.43;;;4.65;;
45198;SDS011;30941;46.422;18.772;2023-02-03T13:46:33;9.23;;;5.15;;
45198;SDS011;30941;46.422;18.772;2023-02-03T13:49:01;10.27;;;5.18;;
45198;SDS011;30941;46.422;18.772;2023-02-03T13:51:34;7.30;;;4.20;;
45198;SDS011;30941;46.422;18.772;2023-02-03T13:54:06;8.93;;;4.25;;
45198;SDS011;30941;46.422;18.772;2023-02-03T13:56:36;7.85;;;4.10;;
45198;SDS011;30941;46.422;18.772;2023-02-03T13:59:04;7.97;;;4.85;;
45198;SDS011;30941;46.422;18.772;2023-02-03T14:01:37;7.03;;;3.88;;
45198;SDS011;30941;46.422;18.772;2023-02-03T14:04:04;6.88;;;4.22;;
45198;SDS011;30941;46.422;18.772;2023-02-03T14:09:19;19.23;;;10.20;;
45198;SDS011;30941;46.422;18.772;2023-02-03T14:14:43;10.73;;;6.40;;
45198;SDS011;30941;46.422;18.772;2023-02-03T14:22:51;9.63;;;5.32;;
45198;SDS011;30941;46.422;18.772;2023-02-03T14:25:18;12.43;;;6.82;;
45198;SDS011;30941;46.422;18.772;2023-02-03T14:27:45;7.28;;;4.55;;
45198;SDS011;30941;46.422;18.772;2023-02-03T14:30:12;10.15;;;5.55;;
45198;SDS011;30941;46.422;18.772;2023-02-03T14:35:39;8.82;;;4.85;;
45198;SDS011;30941;46.422;18.772;2023-02-03T14:38:08;13.25;;;6.18;;
45198;SDS011;30941;46.422;18.772;2023-02-03T14:40:44;14.70;;;7.50;;
45198;SDS011;30941;46.422;18.772;2023-02-03T14:48:51;15.40;;;6.38;;
45198;SDS011;30941;46.422;18.772;2023-02-03T14:54:18;11.82;;;6.45;;
45198;SDS011;30941;46.422;18.772;2023-02-03T14:59:55;19.35;;;11.50;;
45198;SDS011;30941;46.422;18.772;2023-02-03T15:02:25;9.07;;;4.63;;
45198;SDS011;30941;46.422;18.772;2023-02-03T15:07:36;26.25;;;15.27;;
45198;SDS011;30941;46.422;18.772;2023-02-03T15:10:19;17.38;;;9.40;;
45198;SDS011;30941;46.422;18.772;2023-02-03T15:12:50;9.93;;;6.72;;
45198;SDS011;30941;46.422;18.772;2023-02-03T15:17:52;7.88;;;5.22;;
45198;SDS011;30941;46.422;18.772;2023-02-03T15:22:53;6.18;;;3.92;;
45198;SDS011;30941;46.422;18.772;2023-02-03T15:25:20;26.85;;;13.05;;
45198;SDS011;30941;46.422;18.772;2023-02-03T15:27:46;55.97;;;27.70;;
45198;SDS011;30941;46.422;18.772;2023-02-03T15:30:23;34.40;;;17.83;;
45198;SDS011;30941;46.422;18.772;2023-02-03T15:35:31;10.95;;;6.25;;
45198;SDS011;30941;46.422;18.772;2023-02-03T15:38:00;14.02;;;8.68;;
45198;SDS011;30941;46.422;18.772;2023-02-03T15:40:34;15.50;;;10.57;;
45198;SDS011;30941;46.422;18.772;2023-02-03T15:43:11;14.13;;;9.68;;
45198;SDS011;30941;46.422;18.772;2023-02-03T15:46:00;13.60;;;8.25;;
45198;SDS011;30941;46.422;18.772;2023-02-03T15:51:22;38.60;;;19.13;;
45198;SDS011;30941;46.422;18.772;2023-02-03T15:56:46;34.08;;;18.73;;
45198;SDS011;30941;46.422;18.772;2023-02-03T16:01:51;33.25;;;17.27;;
45198;SDS011;30941;46.422;18.772;2023-02-03T16:04:17;22.23;;;12.93;;
45198;SDS011;30941;46.422;18.772;2023-02-03T16:06:44;20.67;;;11.82;;
45198;SDS011;30941;46.422;18.772;2023-02-03T16:12:29;28.55;;;15.45;;
45198;SDS011;30941;46.422;18.772;2023-02-03T16:14:52;25.98;;;14.85;;
45198;SDS011;30941;46.422;18.772;2023-02-03T16:19:50;18.63;;;12.02;;
45198;SDS011;30941;46.422;18.772;2023-02-03T16:22:26;19.75;;;10.98;;
45198;SDS011;30941;46.422;18.772;2023-02-03T16:24:53;17.40;;;10.43;;
45198;SDS011;30941;46.422;18.772;2023-02-03T16:29:49;28.27;;;16.38;;
45198;SDS011;30941;46.422;18.772;2023-02-03T16:32:37;34.13;;;19.40;;
45198;SDS011;30941;46.422;18.772;2023-02-03T16:38:06;37.63;;;20.02;;
45198;SDS011;30941;46.422;18.772;2023-02-03T16:40:56;37.13;;;19.35;;
45198;SDS011;30941;46.422;18.772;2023-02-03T16:46:24;36.95;;;18.30;;
45198;SDS011;30941;46.422;18.772;2023-02-03T16:51:51;23.77;;;12.90;;
45198;SDS011;30941;46.422;18.772;2023-02-03T16:54:19;23.17;;;12.90;;
45198;SDS011;30941;46.422;18.772;2023-02-03T16:56:44;27.30;;;13.85;;
45198;SDS011;30941;46.422;18.772;2023-02-03T16:59:10;23.65;;;12.25;;
45198;SDS011;30941;46.422;18.772;2023-02-03T17:01:35;23.63;;;12.98;;
45198;SDS011;30941;46.422;18.772;2023-02-03T17:04:01;25.63;;;13.75;;
45198;SDS011;30941;46.422;18.772;2023-02-03T17:06:27;27.02;;;14.27;;
45198;SDS011;30941;46.422;18.772;2023-02-03T17:08:53;24.02;;;14.05;;
45198;SDS011;30941;46.422;18.772;2023-02-03T17:11:19;19.80;;;11.05;;
45198;SDS011;30941;46.422;18.772;2023-02-03T17:13:46;14.77;;;7.43;;
45198;SDS011;30941;46.422;18.772;2023-02-03T17:16:18;11.70;;;7.43;;
45198;SDS011;30941;46.422;18.772;2023-02-03T17:18:46;11.82;;;6.85;;
45198;SDS011;30941;46.422;18.772;2023-02-03T17:21:17;9.90;;;6.05;;